Time;durP1;ratioP1;P1;durP2;ratioP2;P2;SDS_P1;SDS_P2;PMS_P1;PMS_P2;Temp;Humidity;BMP_temperature;BMP_pressure;BME280_temperature;BME280_humidity;BME280_pressure;Samples;Min_cycle;Max_cycle;Signal;HPM_P1;HPM_P2
2021/03/21 00:00:24;;;;;;;10.10;4.70;;;2.40;92.10;;;;;;4928034;28;20031;-83
2021/03/21 00:02:50;;;;;;;12.05;5.10;;;2.40;92.10;;;;;;4959679;28;20033;-82
2021/03/21 00:05:16;;;;;;;14.63;6.13;;;2.40;92.20;;;;;;4959656;28;20027;-82
2021/03/21 00:07:41;;;;;;;10.80;4.60;;;2.40;92.20;;;;;;4978374;28;20058;-82
2021/03/21 00:10:08;;;;;;;8.98;3.95;;;2.40;92.30;;;;;;4978915;28;20053;-81
2021/03/21 00:12:33;;;;;;;9.20;4.43;;;2.40;92.60;;;;;;4996210;28;20026;-82
2021/03/21 00:14:59;;;;;;;8.98;4.13;;;2.50;92.30;;;;;;4995952;28;20087;-82
2021/03/21 00:17:25;;;;;;;10.18;4.20;;;2.50;92.20;;;;;;4978771;28;20034;-82
2021/03/21 00:19:50;;;;;;;9.88;4.50;;;2.50;92.40;;;;;;4995775;28;20363;-82
2021/03/21 00:22:16;;;;;;;10.30;4.75;;;2.50;92.30;;;;;;4995965;28;20045;-82
2021/03/21 00:24:41;;;;;;;9.40;4.60;;;2.50;92.40;;;;;;4978460;28;20397;-82
2021/03/21 00:27:07;;;;;;;8.25;3.80;;;2.50;92.40;;;;;;4995672;28;20089;-82
2021/03/21 00:29:33;;;;;;;9.57;4.20;;;2.60;92.40;;;;;;4978624;28;20058;-82
2021/03/21 00:31:59;;;;;;;10.23;4.32;;;2.60;92.40;;;;;;4978732;28;20117;-81
2021/03/21 00:34:24;;;;;;;9.43;4.43;;;2.60;92.30;;;;;;4995374;28;20110;-81
2021/03/21 00:36:50;;;;;;;9.15;4.10;;;2.60;92.10;;;;;;4995775;28;20026;-81
2021/03/21 00:39:18;;;;;;;9.05;3.95;;;2.60;92.20;;;;;;4995556;28;20054;-82
2021/03/21 00:41:43;;;;;;;5.45;2.90;;;2.60;92.10;;;;;;4962427;28;20031;-82
2021/03/21 00:44:09;;;;;;;9.93;4.43;;;2.60;92.30;;;;;;4961829;28;20126;-82
2021/03/21 00:46:35;;;;;;;10.25;4.95;;;2.50;92.10;;;;;;4995214;28;20034;-82
2021/03/21 00:49:00;;;;;;;10.98;4.70;;;2.50;92.30;;;;;;4995464;28;20077;-82
2021/03/21 00:51:26;;;;;;;10.35;4.20;;;2.60;92.30;;;;;;4995430;28;20030;-82
2021/03/21 00:53:51;;;;;;;8.90;4.22;;;2.60;92.30;;;;;;4994067;28;20042;-82
2021/03/21 00:56:29;;;;;;;11.45;4.47;;;2.50;92.10;;;;;;4995495;28;20481;-82
2021/03/21 00:58:55;;;;;;;8.70;4.32;;;2.50;92.00;;;;;;4995245;28;20026;-82
2021/03/21 01:01:21;;;;;;;9.65;4.70;;;2.50;92.00;;;;;;4977782;28;20026;-79
2021/03/21 01:03:46;;;;;;;9.65;4.22;;;2.40;92.00;;;;;;4977862;28;20126;-79
2021/03/21 01:06:12;;;;;;;8.40;4.07;;;2.40;92.20;;;;;;4994884;28;20077;-80
2021/03/21 01:08:39;;;;;;;9.63;4.50;;;2.40;92.10;;;;;;4985488;28;20386;-80
2021/03/21 01:11:17;;;;;;;10.80;4.70;;;2.40;92.20;;;;;;4975706;28;20046;-80
2021/03/21 01:13:44;;;;;;;9.77;4.53;;;2.40;92.20;;;;;;4975457;28;20031;-80
2021/03/21 01:16:21;;;;;;;9.82;4.18;;;2.40;92.30;;;;;;4975167;28;20039;-80
2021/03/21 01:18:49;;;;;;;9.73;3.70;;;2.40;92.50;;;;;;4975582;28;20042;-80
2021/03/21 01:21:15;;;;;;;9.73;4.03;;;2.40;92.30;;;;;;4975451;28;20490;-80
2021/03/21 01:23:42;;;;;;;8.73;3.95;;;2.50;92.40;;;;;;4975362;28;20474;-81
2021/03/21 01:26:21;;;;;;;10.75;4.45;;;2.50;92.30;;;;;;4975409;28;20050;-80
2021/03/21 01:28:47;;;;;;;9.32;4.07;;;2.50;92.30;;;;;;4975368;28;20035;-80
2021/03/21 01:31:19;;;;;;;9.10;3.80;;;2.50;92.40;;;;;;4975072;28;20081;-80
2021/03/21 01:33:46;;;;;;;7.22;3.40;;;2.50;92.40;;;;;;4958123;28;20478;-80
2021/03/21 01:36:23;;;;;;;7.45;3.22;;;2.50;92.30;;;;;;4975265;28;20053;-80
2021/03/21 01:38:51;;;;;;;8.80;4.13;;;2.50;92.30;;;;;;4975265;28;20042;-80
2021/03/21 01:41:21;;;;;;;8.45;4.00;;;2.50;92.20;;;;;;4975264;28;20387;-81
2021/03/21 01:43:48;;;;;;;8.90;4.22;;;2.50;92.30;;;;;;4975106;28;20031;-81
2021/03/21 01:46:24;;;;;;;9.48;4.03;;;2.50;92.30;;;;;;4975057;28;20022;-81
2021/03/21 01:48:53;;;;;;;10.60;4.35;;;2.50;92.30;;;;;;4975046;28;20426;-81
2021/03/21 01:51:29;;;;;;;8.48;3.63;;;2.50;92.40;;;;;;4974803;28;20435;-81
2021/03/21 01:53:57;;;;;;;12.55;4.88;;;2.60;92.30;;;;;;4975001;28;20054;-81
2021/03/21 01:56:26;;;;;;;9.57;4.15;;;2.50;92.20;;;;;;4974417;28;20031;-81
2021/03/21 01:58:58;;;;;;;8.05;3.72;;;2.50;92.40;;;;;;4975013;28;20030;-81
2021/03/21 02:01:27;;;;;;;11.07;4.95;;;2.60;92.50;;;;;;4974783;28;20037;-80
2021/03/21 02:03:53;;;;;;;12.82;4.35;;;2.60;92.70;;;;;;4974559;28;20426;-82
2021/03/21 02:06:39;;;;;;;9.27;4.50;;;2.60;92.40;;;;;;4957831;28;20031;-81
2021/03/21 02:09:27;;;;;;;8.70;3.92;;;2.60;92.30;;;;;;4988030;28;20050;-82
2021/03/21 02:12:12;;;;;;;14.40;4.55;;;2.60;92.30;;;;;;4993953;28;20037;-82
2021/03/21 02:14:40;;;;;;;9.95;4.80;;;2.60;92.30;;;;;;4977078;28;20035;-82
2021/03/21 02:17:19;;;;;;;11.48;4.55;;;2.60;92.30;;;;;;5007265;28;20121;-81
2021/03/21 02:20:22;;;;;;;10.02;4.40;;;2.60;92.30;;;;;;4994060;28;20482;-83
2021/03/21 02:22:57;;;;;;;7.78;3.17;;;2.60;92.40;;;;;;4994092;28;20278;-82
2021/03/21 02:25:49;;;;;;;11.80;5.43;;;2.60;92.30;;;;;;4994021;28;20038;-82
2021/03/21 02:28:17;;;;;;;8.75;4.00;;;2.50;92.30;;;;;;4993975;28;20068;-82
2021/03/21 02:30:48;;;;;;;11.00;4.68;;;2.60;92.40;;;;;;4993993;28;20023;-84
2021/03/21 02:33:16;;;;;;;9.68;4.25;;;2.60;92.40;;;;;;5009188;28;20030;-83
2021/03/21 02:36:04;;;;;;;7.47;3.13;;;2.60;92.40;;;;;;5009342;28;20042;-80
2021/03/21 02:38:50;;;;;;;10.40;4.32;;;2.60;92.30;;;;;;4993963;28;20025;-80
2021/03/21 02:41:21;;;;;;;7.78;3.33;;;2.50;92.30;;;;;;4993990;28;20034;-81
2021/03/21 02:43:54;;;;;;;9.43;3.88;;;2.50;92.20;;;;;;4994145;28;20076;-82
2021/03/21 02:46:23;;;;;;;10.02;4.10;;;2.50;92.30;;;;;;5009004;28;20030;-81
2021/03/21 02:48:56;;;;;;;9.30;3.30;;;2.50;92.30;;;;;;4993475;28;20474;-81
2021/03/21 02:51:30;;;;;;;8.15;3.67;;;2.50;92.40;;;;;;4993809;28;20110;-79
2021/03/21 02:54:28;;;;;;;9.50;3.55;;;2.50;92.30;;;;;;4993467;28;20077;-83
2021/03/21 02:57:02;;;;;;;9.90;3.83;;;2.50;92.40;;;;;;5008118;28;20031;-83
2021/03/21 02:59:32;;;;;;;10.55;3.50;;;2.60;92.40;;;;;;4993921;28;20023;-83
2021/03/21 03:02:04;;;;;;;8.85;4.57;;;2.60;92.50;;;;;;4993699;28;20451;-83
2021/03/21 03:04:40;;;;;;;8.82;3.58;;;2.60;92.30;;;;;;4992815;28;20157;-83
2021/03/21 03:07:19;;;;;;;8.77;4.15;;;2.60;92.40;;;;;;4993887;28;20351;-83
2021/03/21 03:09:50;;;;;;;7.53;3.30;;;2.60;92.40;;;;;;4996801;28;20096;-83
2021/03/21 03:12:35;;;;;;;8.95;3.50;;;2.60;92.40;;;;;;5012694;28;20027;-83
2021/03/21 03:15:08;;;;;;;9.93;4.38;;;2.60;92.50;;;;;;5012285;28;20038;-83
2021/03/21 03:18:07;;;;;;;6.40;2.70;;;2.60;92.40;;;;;;4997350;28;20042;-80
2021/03/21 03:20:55;;;;;;;8.80;3.92;;;2.60;92.40;;;;;;4966131;28;20278;-80
2021/03/21 03:23:45;;;;;;;8.20;3.58;;;2.60;92.50;;;;;;4996996;28;20026;-80
2021/03/21 03:26:19;;;;;;;9.00;3.65;;;2.70;92.50;;;;;;4997007;28;20018;-80
2021/03/21 03:29:00;;;;;;;8.75;3.80;;;2.70;92.50;;;;;;4996979;28;20077;-80
2021/03/21 03:31:37;;;;;;;10.75;4.65;;;2.70;92.40;;;;;;4995658;28;20568;-80
2021/03/21 03:34:03;;;;;;;10.23;4.80;;;2.70;92.40;;;;;;4996511;28;20034;-80
2021/03/21 03:36:29;;;;;;;9.02;3.45;;;2.70;92.40;;;;;;4996975;28;20425;-79
2021/03/21 03:38:55;;;;;;;7.63;3.03;;;2.70;92.40;;;;;;4996822;28;20029;-80
2021/03/21 03:41:39;;;;;;;8.88;3.95;;;2.70;92.30;;;;;;4996760;28;20498;-80
2021/03/21 03:44:40;;;;;;;8.63;3.07;;;2.70;92.40;;;;;;4996836;28;20034;-80
2021/03/21 03:47:14;;;;;;;9.60;3.97;;;2.70;92.40;;;;;;4996462;28;20378;-80
2021/03/21 03:49:43;;;;;;;7.00;3.17;;;2.70;92.40;;;;;;4996591;28;20446;-80
2021/03/21 03:52:46;;;;;;;8.00;3.13;;;2.70;92.50;;;;;;4996643;28;20273;-80
2021/03/21 03:55:44;;;;;;;11.88;4.97;;;2.70;92.40;;;;;;4996238;28;20475;-80
2021/03/21 03:58:48;;;;;;;9.73;4.47;;;2.70;92.40;;;;;;4996681;28;20431;-80
2021/03/21 04:01:37;;;;;;;6.78;3.38;;;2.70;92.40;;;;;;4995820;28;20034;-80
2021/03/21 04:04:34;;;;;;;9.30;3.90;;;2.70;92.40;;;;;;4996315;28;20058;-81
2021/03/21 04:07:43;;;;;;;7.60;2.97;;;2.70;92.50;;;;;;4928310;28;20050;-80
2021/03/21 04:10:20;;;;;;;8.40;3.67;;;2.70;92.40;;;;;;4976782;28;20027;-81
2021/03/21 04:13:13;;;;;;;6.88;2.50;;;2.70;92.50;;;;;;4959389;28;20034;-81
2021/03/21 04:15:46;;;;;;;10.00;3.05;;;2.70;92.40;;;;;;4976508;28;20055;-80
2021/03/21 04:18:18;;;;;;;6.10;2.60;;;2.80;92.50;;;;;;4976454;28;20030;-79
2021/03/21 04:20:53;;;;;;;6.95;3.00;;;2.80;92.50;;;;;;4976101;28;20027;-79
2021/03/21 04:23:27;;;;;;;8.48;3.55;;;2.80;92.40;;;;;;4959206;28;20594;-79
2021/03/21 04:26:01;;;;;;;7.57;3.47;;;2.80;92.40;;;;;;4976523;28;20030;-80
2021/03/21 04:28:35;;;;;;;8.65;3.75;;;2.80;92.60;;;;;;4976293;28;20027;-82
2021/03/21 04:31:07;;;;;;;10.18;3.55;;;2.90;92.60;;;;;;4976520;28;20501;-82
2021/03/21 04:33:52;;;;;;;11.32;4.18;;;2.90;92.50;;;;;;4976545;28;20042;-82
2021/03/21 04:36:19;;;;;;;;;;;2.90;92.40;;;;;;4959207;28;20508;-82
2021/03/21 04:38:55;;;;;;;11.32;4.85;;;2.90;92.50;;;;;;4976303;28;19906;-82
2021/03/21 04:41:26;;;;;;;6.93;3.17;;;2.90;92.40;;;;;;4976410;28;20030;-83
2021/03/21 04:44:24;;;;;;;8.30;3.50;;;2.90;92.50;;;;;;4976289;28;20110;-83
2021/03/21 04:46:56;;;;;;;8.88;3.22;;;2.90;92.40;;;;;;4959076;28;20058;-83
2021/03/21 04:49:22;;;;;;;8.00;3.55;;;2.90;92.60;;;;;;4958598;28;20030;-82
2021/03/21 04:51:50;;;;;;;11.00;3.70;;;2.90;92.60;;;;;;4976048;28;20034;-80
2021/03/21 04:54:15;;;;;;;7.00;3.00;;;3.00;92.50;;;;;;4975903;28;20034;-81
2021/03/21 04:56:52;;;;;;;6.10;2.80;;;3.00;92.60;;;;;;4975979;28;20027;-81
2021/03/21 04:59:32;;;;;;;7.53;3.25;;;3.00;92.60;;;;;;4975913;28;20022;-81
2021/03/21 05:02:23;;;;;;;7.38;3.20;;;3.00;92.60;;;;;;4975849;28;20029;-80
2021/03/21 05:05:23;;;;;;;8.05;3.40;;;3.00;92.50;;;;;;4975841;28;20561;-80
2021/03/21 05:07:54;;;;;;;9.15;3.58;;;3.10;92.80;;;;;;4978535;28;20034;-81
2021/03/21 05:10:39;;;;;;;7.93;3.17;;;3.10;92.50;;;;;;4995006;28;20018;-80
2021/03/21 05:13:06;;;;;;;7.57;3.33;;;3.10;92.60;;;;;;4993771;28;20486;-81
2021/03/21 05:15:58;;;;;;;7.00;2.92;;;3.10;92.50;;;;;;4995799;28;20054;-82
2021/03/21 05:18:39;;;;;;;6.70;2.85;;;3.00;92.50;;;;;;4994783;28;20050;-82
2021/03/21 05:21:32;;;;;;;9.75;3.40;;;3.00;92.50;;;;;;4993686;28;20023;-82
2021/03/21 05:24:10;;;;;;;7.75;3.15;;;3.00;92.40;;;;;;4995150;28;20050;-81
2021/03/21 05:26:41;;;;;;;8.70;3.47;;;3.00;92.50;;;;;;5009951;28;20508;-82
2021/03/21 05:29:22;;;;;;;8.20;2.95;;;3.00;92.50;;;;;;5009857;28;20122;-79
2021/03/21 05:31:48;;;;;;;7.93;2.60;;;3.10;92.60;;;;;;4993835;28;20031;-80
2021/03/21 05:34:15;;;;;;;8.13;3.30;;;3.10;92.60;;;;;;4994823;28;20026;-80
2021/03/21 05:37:15;;;;;;;7.70;3.00;;;3.10;92.50;;;;;;4993784;28;20470;-80
2021/03/21 05:40:18;;;;;;;5.50;2.35;;;3.10;92.60;;;;;;4994585;28;20533;-80
2021/03/21 05:43:14;;;;;;;8.55;3.72;;;3.10;92.50;;;;;;4994758;28;20026;-80
2021/03/21 05:45:51;;;;;;;;;;;3.10;92.50;;;;;;4995021;28;20034;-80
2021/03/21 05:49:05;;;;;;;8.70;3.58;;;3.20;92.60;;;;;;4994472;28;19972;-80
2021/03/21 05:51:45;;;;;;;6.95;2.83;;;3.20;92.70;;;;;;4956768;28;20497;-80
2021/03/21 05:54:14;;;;;;;8.40;3.42;;;3.20;92.60;;;;;;4993884;28;20082;-81
2021/03/21 05:57:17;;;;;;;9.02;3.65;;;3.20;92.70;;;;;;4994425;28;20022;-80
2021/03/21 06:00:27;;;;;;;9.15;3.50;;;3.30;92.60;;;;;;4994299;28;20034;-80
2021/03/21 06:03:10;;;;;;;9.43;3.10;;;3.30;92.70;;;;;;4994261;28;20038;-81
2021/03/21 06:06:12;;;;;;;4.97;2.20;;;3.30;92.80;;;;;;4993923;28;20073;-80
2021/03/21 06:08:41;;;;;;;6.95;3.00;;;3.40;92.90;;;;;;4984707;28;20082;-80
2021/03/21 06:11:13;;;;;;;6.28;3.08;;;3.50;92.80;;;;;;4974813;28;20073;-80
2021/03/21 06:14:06;;;;;;;7.45;3.13;;;3.50;92.70;;;;;;4974455;28;20082;-81
2021/03/21 06:16:53;;;;;;;8.02;3.10;;;3.50;92.60;;;;;;4974678;28;20155;-80
2021/03/21 06:19:36;;;;;;;6.57;2.75;;;3.50;92.60;;;;;;4974649;28;20374;-80
2021/03/21 06:22:34;;;;;;;7.30;3.03;;;3.60;92.80;;;;;;4974677;28;20026;-80
2021/03/21 06:25:37;;;;;;;6.03;2.90;;;3.60;92.70;;;;;;4974480;28;20502;-79
2021/03/21 06:28:48;;;;;;;8.75;3.33;;;3.70;92.80;;;;;;4974924;28;20566;-80
2021/03/21 06:31:38;;;;;;;8.25;3.25;;;3.70;92.70;;;;;;4974598;28;20030;-79
2021/03/21 06:34:44;;;;;;;6.20;2.72;;;3.70;92.90;;;;;;4974844;28;20474;-79
2021/03/21 06:37:39;;;;;;;9.68;4.00;;;3.80;93.00;;;;;;4974375;28;20027;-79
2021/03/21 06:40:24;;;;;;;8.52;3.53;;;3.80;92.80;;;;;;4974516;28;20430;-79
2021/03/21 06:42:52;;;;;;;9.60;3.90;;;3.90;92.90;;;;;;4976028;28;20081;-79
2021/03/21 06:45:20;;;;;;;8.68;3.53;;;3.90;92.70;;;;;;4978427;28;20098;-78
2021/03/21 06:47:55;;;;;;;9.68;4.75;;;3.90;92.60;;;;;;4978168;28;20533;-78
2021/03/21 06:50:21;;;;;;;;;;;3.90;93.00;;;;;;4978643;28;20385;-80
2021/03/21 06:53:07;;;;;;;10.40;4.93;;;4.00;92.50;;;;;;4978244;28;19997;-80
2021/03/21 06:55:46;;;;;;;9.13;4.10;;;3.90;92.70;;;;;;4978094;28;20456;-83
2021/03/21 06:59:00;;;;;;;10.50;3.90;;;4.00;92.80;;;;;;4961164;28;20630;-81
2021/03/21 07:01:29;;;;;;;8.45;4.03;;;4.10;92.80;;;;;;4960508;28;20489;-81
2021/03/21 07:04:09;;;;;;;12.45;5.80;;;4.10;92.50;;;;;;4978102;28;20549;-81
2021/03/21 07:06:56;;;;;;;7.85;3.72;;;4.00;92.40;;;;;;4978297;28;20033;-81
2021/03/21 07:10:01;;;;;;;10.70;5.60;;;4.00;92.60;;;;;;4993513;28;20072;-80
2021/03/21 07:12:40;;;;;;;10.93;5.43;;;4.00;92.20;;;;;;4997161;28;20106;-77
2021/03/21 07:15:30;;;;;;;8.95;4.40;;;3.90;92.40;;;;;;4997027;28;20485;-81
2021/03/21 07:18:14;;;;;;;8.98;4.50;;;4.00;92.50;;;;;;4997184;28;20034;-78
2021/03/21 07:21:11;;;;;;;13.03;7.40;;;4.00;92.40;;;;;;4997231;28;20026;-78
2021/03/21 07:23:48;;;;;;;15.43;6.60;;;4.00;92.50;;;;;;4996949;28;20030;-78
2021/03/21 07:26:47;;;;;;;11.45;5.40;;;4.10;92.60;;;;;;4996996;28;20054;-79
2021/03/21 07:29:41;;;;;;;13.40;7.30;;;4.20;92.90;;;;;;4997012;28;20035;-81
2021/03/21 07:32:31;;;;;;;11.73;5.47;;;4.50;93.10;;;;;;4997615;28;20018;-82
2021/03/21 07:35:06;;;;;;;16.45;7.50;;;4.70;92.90;;;;;;4996082;28;20034;-81
2021/03/21 07:37:39;;;;;;;9.00;4.47;;;4.70;92.70;;;;;;4997606;28;20030;-82
2021/03/21 07:40:38;;;;;;;10.65;3.83;;;4.80;92.50;;;;;;4995613;28;20054;-80
2021/03/21 07:43:23;;;;;;;12.85;5.78;;;4.80;92.70;;;;;;4996487;28;20109;-80
2021/03/21 07:46:07;;;;;;;11.23;6.18;;;5.00;92.90;;;;;;4996927;28;20573;-80
2021/03/21 07:48:46;;;;;;;12.48;5.78;;;5.10;92.80;;;;;;4996622;28;20035;-80
2021/03/21 07:51:36;;;;;;;12.65;5.95;;;5.20;92.70;;;;;;4996718;28;20030;-80
2021/03/21 07:54:20;;;;;;;12.88;6.05;;;5.20;92.30;;;;;;4994144;28;20069;-81
2021/03/21 07:56:52;;;;;;;18.48;8.35;;;5.20;92.40;;;;;;4996405;28;20029;-81
2021/03/21 07:59:25;;;;;;;12.30;6.00;;;5.10;91.90;;;;;;4979670;28;20060;-82
2021/03/21 08:01:52;;;;;;;13.15;5.72;;;5.00;92.20;;;;;;4979062;28;20113;-81
2021/03/21 08:04:24;;;;;;;13.45;6.28;;;5.10;92.20;;;;;;4996275;28;20429;-81
2021/03/21 08:06:58;;;;;;;16.60;6.97;;;5.10;92.20;;;;;;4996279;28;20023;-81
2021/03/21 08:09:37;;;;;;;9.57;4.55;;;5.00;92.10;;;;;;4963245;28;20038;-81
2021/03/21 08:12:39;;;;;;;11.98;5.88;;;5.10;92.30;;;;;;4977858;28;20026;-80
2021/03/21 08:15:23;;;;;;;13.60;5.40;;;5.10;92.40;;;;;;4982405;28;20058;-80
2021/03/21 08:17:57;;;;;;;18.15;7.93;;;5.10;92.10;;;;;;4961827;28;20081;-81
2021/03/21 08:20:29;;;;;;;10.63;5.15;;;5.10;92.30;;;;;;4976751;28;20035;-81
2021/03/21 08:23:13;;;;;;;11.02;4.50;;;5.30;92.60;;;;;;4959432;28;20533;-85
2021/03/21 08:25:39;;;;;;;15.27;6.43;;;5.30;92.40;;;;;;4976141;28;20387;-82
2021/03/21 08:28:05;;;;;;;16.67;7.82;;;5.30;92.10;;;;;;4976526;28;20023;-82
2021/03/21 08:30:57;;;;;;;8.80;4.43;;;5.40;92.30;;;;;;4943399;28;20034;-82
2021/03/21 08:33:39;;;;;;;13.98;6.15;;;5.40;92.20;;;;;;4976667;28;20391;-82
2021/03/21 08:36:18;;;;;;;5.47;2.50;;;5.40;92.20;;;;;;4976599;28;20035;-82
2021/03/21 08:39:10;;;;;;;13.35;5.72;;;5.40;92.10;;;;;;4959184;28;20026;-80
2021/03/21 08:41:52;;;;;;;10.20;5.28;;;5.40;92.40;;;;;;4976254;28;20470;-81
2021/03/21 08:44:43;;;;;;;11.02;4.75;;;5.40;92.20;;;;;;4976358;28;20030;-81
2021/03/21 08:47:23;;;;;;;6.85;3.45;;;5.40;92.20;;;;;;4958932;28;20030;-81
2021/03/21 08:49:52;;;;;;;10.10;4.00;;;5.40;92.00;;;;;;4976323;28;20386;-82
2021/03/21 08:52:41;;;;;;;9.05;4.60;;;5.40;92.20;;;;;;4976843;28;20029;-82
2021/03/21 08:55:35;;;;;;;18.52;7.93;;;5.40;92.10;;;;;;4959326;28;20045;-81
2021/03/21 08:58:23;;;;;;;16.65;6.93;;;5.30;92.20;;;;;;4958918;28;20030;-85
2021/03/21 09:00:49;;;;;;;11.90;5.75;;;5.40;92.20;;;;;;4975634;28;20392;-81
2021/03/21 09:03:33;;;;;;;12.48;4.85;;;5.50;92.40;;;;;;4975871;28;20027;-83
2021/03/21 09:06:00;;;;;;;14.23;6.82;;;5.50;92.60;;;;;;4976030;28;20023;-82
2021/03/21 09:08:29;;;;;;;12.45;5.40;;;5.60;92.30;;;;;;4966552;28;20038;-81
2021/03/21 09:11:01;;;;;;;12.10;5.50;;;5.70;92.60;;;;;;4995114;28;20034;-81
2021/03/21 09:13:32;;;;;;;6.55;3.15;;;5.80;92.50;;;;;;4995080;28;20463;-81
2021/03/21 09:15:58;;;;;;;15.00;5.38;;;5.80;92.00;;;;;;4982816;28;20383;-82
2021/03/21 09:18:36;;;;;;;11.10;4.80;;;5.70;92.10;;;;;;4994847;28;20033;-82
2021/03/21 09:21:04;;;;;;;17.58;7.05;;;5.70;92.40;;;;;;5010365;28;20030;-82
2021/03/21 09:23:36;;;;;;;15.32;5.85;;;6.00;92.90;;;;;;4995360;28;20014;-82
2021/03/21 09:26:16;;;;;;;27.00;8.95;;;6.10;92.40;;;;;;4994867;28;20336;-82
2021/03/21 09:29:21;;;;;;;18.48;8.63;;;6.20;92.30;;;;;;4993862;28;20169;-82
2021/03/21 09:31:48;;;;;;;11.82;5.38;;;6.20;92.60;;;;;;4995019;28;20053;-82
2021/03/21 09:34:32;;;;;;;13.05;6.28;;;6.40;92.40;;;;;;5010142;28;20038;-82
2021/03/21 09:37:05;;;;;;;23.55;8.02;;;6.40;92.30;;;;;;4994909;28;20056;-81
2021/03/21 09:39:34;;;;;;;17.95;7.75;;;6.30;92.00;;;;;;4994761;28;20022;-81
2021/03/21 09:42:04;;;;;;;13.25;5.30;;;6.40;92.30;;;;;;4994617;28;20426;-81
2021/03/21 09:44:42;;;;;;;12.68;4.68;;;6.40;91.90;;;;;;4994621;28;20458;-81
2021/03/21 09:47:27;;;;;;;19.13;7.38;;;6.30;91.60;;;;;;4994497;28;20018;-82
2021/03/21 09:49:59;;;;;;;22.45;7.82;;;6.20;91.50;;;;;;4994320;28;20030;-79
2021/03/21 09:52:46;;;;;;;19.33;8.30;;;6.20;91.90;;;;;;4994384;28;20019;-80
2021/03/21 09:55:29;;;;;;;19.80;7.00;;;6.30;92.30;;;;;;4994298;28;20100;-83
2021/03/21 09:58:17;;;;;;;21.50;11.30;;;6.30;91.60;;;;;;4994121;28;20029;-83
2021/03/21 10:00:50;;;;;;;23.02;8.73;;;6.30;91.70;;;;;;4992955;28;20019;-79
2021/03/21 10:03:35;;;;;;;12.48;4.60;;;6.30;92.10;;;;;;4994150;28;20076;-80
2021/03/21 10:06:19;;;;;;;15.70;7.53;;;6.30;91.80;;;;;;4994392;28;20032;-82
2021/03/21 10:09:06;;;;;;;23.23;8.48;;;6.40;91.90;;;;;;4983664;28;20019;-84
2021/03/21 10:11:40;;;;;;;29.38;11.85;;;6.40;92.20;;;;;;4974949;28;20110;-80
2021/03/21 10:14:25;;;;;;;43.28;12.90;;;6.50;91.90;;;;;;4975010;28;20058;-81
2021/03/21 10:16:52;;;;;;;35.95;11.38;;;6.40;91.10;;;;;;4974211;28;20051;-82
2021/03/21 10:19:46;;;;;;;31.80;12.57;;;6.20;91.40;;;;;;4974278;28;20098;-82
2021/03/21 10:22:21;;;;;;;22.05;6.25;;;6.30;91.90;;;;;;4975392;28;20015;-82
2021/03/21 10:24:53;;;;;;;13.68;6.38;;;6.20;91.50;;;;;;4974888;28;20031;-81
2021/03/21 10:27:21;;;;;;;27.55;9.85;;;6.20;91.30;;;;;;4974714;28;20042;-81
2021/03/21 10:30:13;;;;;;;12.88;5.72;;;6.10;91.50;;;;;;4974638;28;20023;-80
2021/03/21 10:32:44;;;;;;;24.05;8.55;;;6.00;91.30;;;;;;4957351;28;20035;-80
2021/03/21 10:35:21;;;;;;;11.30;5.15;;;5.90;91.40;;;;;;4957435;28;20035;-80
2021/03/21 10:37:47;;;;;;;28.20;7.53;;;5.80;91.50;;;;;;4974635;28;20026;-80
2021/03/21 10:40:24;;;;;;;22.42;7.90;;;5.80;91.70;;;;;;4974392;28;20031;-80
2021/03/21 10:43:11;;;;;;;32.65;9.63;;;5.80;92.00;;;;;;4957339;28;20447;-80
2021/03/21 10:45:36;;;;;;;17.65;7.00;;;6.00;92.60;;;;;;4974506;28;20062;-80
2021/03/21 10:48:15;;;;;;;31.50;10.80;;;6.30;93.00;;;;;;4974631;28;20023;-80
2021/03/21 10:50:56;;;;;;;26.80;10.02;;;6.50;92.70;;;;;;4974573;28;20029;-80
2021/03/21 10:53:29;;;;;;;24.52;7.03;;;6.80;92.90;;;;;;4976001;28;20362;-80
2021/03/21 10:56:32;;;;;;;34.80;9.03;;;7.00;92.80;;;;;;4981117;28;20059;-80
2021/03/21 10:59:13;;;;;;;16.17;6.03;;;6.90;91.70;;;;;;4975204;28;20439;-80
2021/03/21 11:01:44;;;;;;;27.38;8.75;;;6.90;91.60;;;;;;4975012;28;20023;-82
2021/03/21 11:04:47;;;;;;;43.55;13.00;;;6.80;91.70;;;;;;4956990;28;20022;-80
2021/03/21 11:07:18;;;;;;;39.70;11.40;;;6.90;91.70;;;;;;4971099;28;20053;-79
2021/03/21 11:10:03;;;;;;;23.42;7.47;;;6.80;91.70;;;;;;4992403;28;20538;-80
2021/03/21 11:12:38;;;;;;;35.45;11.38;;;6.80;91.60;;;;;;4993840;28;20053;-80
2021/03/21 11:15:29;;;;;;;36.33;13.23;;;6.90;91.60;;;;;;4993479;28;20030;-81
2021/03/21 11:18:04;;;;;;;16.80;6.40;;;7.00;92.10;;;;;;4993725;28;20018;-80
2021/03/21 11:20:34;;;;;;;32.55;9.77;;;7.20;92.20;;;;;;4993800;28;20022;-80
2021/03/21 11:23:06;;;;;;;39.70;12.20;;;7.20;91.90;;;;;;4993973;28;20018;-80
2021/03/21 11:25:36;;;;;;;23.55;7.15;;;7.40;92.30;;;;;;4993443;28;20502;-80
2021/03/21 11:28:03;;;;;;;27.80;9.52;;;7.50;92.30;;;;;;4976152;28;20030;-78
2021/03/21 11:30:29;;;;;;;16.52;6.88;;;7.60;91.80;;;;;;4995814;28;20030;-79
2021/03/21 11:33:29;;;;;;;38.63;11.85;;;7.60;91.60;;;;;;4997059;28;20046;-81
2021/03/21 11:36:11;;;;;;;21.92;7.40;;;7.70;92.10;;;;;;4993103;28;20140;-81
2021/03/21 11:38:40;;;;;;;21.52;8.35;;;8.00;92.50;;;;;;4996866;28;20030;-81
2021/03/21 11:41:36;;;;;;;44.63;13.80;;;8.20;92.40;;;;;;4996723;28;20018;-81
2021/03/21 11:44:29;;;;;;;36.58;10.68;;;8.10;91.10;;;;;;4996471;28;20081;-80
2021/03/21 11:47:10;;;;;;;18.20;7.72;;;7.90;91.10;;;;;;4994335;28;20133;-81
2021/03/21 11:49:36;;;;;;;17.42;6.25;;;7.90;91.50;;;;;;4996446;28;20037;-81
2021/03/21 11:52:04;;;;;;;19.27;5.65;;;7.90;91.20;;;;;;4978977;28;20054;-81
2021/03/21 11:54:33;;;;;;;28.50;9.27;;;7.80;91.10;;;;;;4979392;28;20069;-81
2021/03/21 11:57:09;;;;;;;34.90;11.75;;;7.90;91.60;;;;;;4996274;28;20018;-78
2021/03/21 11:59:46;;;;;;;7.43;4.07;;;8.10;92.50;;;;;;4978985;28;20422;-78
2021/03/21 12:02:33;;;;;;;24.77;8.38;;;8.40;92.70;;;;;;4996350;28;20030;-78
2021/03/21 12:05:02;;;;;;;24.50;10.15;;;8.70;92.30;;;;;;4996116;28;20030;-79
2021/03/21 12:07:30;;;;;;;22.15;7.63;;;8.70;91.70;;;;;;4995950;28;20023;-80
2021/03/21 12:09:55;;;;;;;22.77;8.90;;;8.80;91.30;;;;;;4976873;28;20031;-80
2021/03/21 12:12:31;;;;;;;11.95;4.20;;;8.60;90.80;;;;;;4959782;28;20034;-79
2021/03/21 12:14:58;;;;;;;21.52;7.55;;;8.30;90.40;;;;;;4976461;28;20505;-79
2021/03/21 12:17:23;;;;;;;25.08;10.57;;;8.10;90.70;;;;;;4976557;28;20550;-79
2021/03/21 12:20:17;;;;;;;24.05;7.40;;;7.90;90.20;;;;;;4976606;28;20471;-79
2021/03/21 12:22:49;;;;;;;20.40;8.55;;;7.70;90.80;;;;;;4976247;28;20073;-81
2021/03/21 12:25:28;;;;;;;31.35;11.90;;;7.60;91.10;;;;;;4976605;28;20023;-81
2021/03/21 12:28:20;;;;;;;26.67;8.73;;;7.60;91.40;;;;;;4976381;28;20467;-81
2021/03/21 12:30:50;;;;;;;19.48;8.73;;;7.50;91.00;;;;;;4976609;28;20023;-81
2021/03/21 12:33:31;;;;;;;27.77;10.30;;;7.40;91.10;;;;;;4976227;28;20414;-81
2021/03/21 12:36:19;;;;;;;24.55;11.10;;;7.30;90.90;;;;;;4976435;28;20546;-81
2021/03/21 12:38:57;;;;;;;29.98;10.95;;;7.20;91.20;;;;;;4976238;28;20023;-80
2021/03/21 12:41:40;;;;;;;10.23;5.10;;;7.00;90.90;;;;;;4975785;28;20379;-81
2021/03/21 12:44:24;;;;;;;13.50;6.05;;;6.90;91.00;;;;;;4975939;28;20106;-81
2021/03/21 12:47:04;;;;;;;8.57;4.07;;;6.80;90.80;;;;;;4977323;28;20380;-82
2021/03/21 12:49:38;;;;;;;11.95;6.32;;;6.70;91.00;;;;;;4976679;28;20023;-80
2021/03/21 12:52:21;;;;;;;13.73;6.30;;;6.50;91.10;;;;;;4976066;28;20031;-81
2021/03/21 12:54:47;;;;;;;15.38;7.20;;;6.50;91.00;;;;;;4975779;28;20054;-82
2021/03/21 12:57:14;;;;;;;27.27;14.00;;;6.40;91.20;;;;;;4975637;28;20031;-81
2021/03/21 12:59:46;;;;;;;17.20;7.00;;;6.50;91.40;;;;;;4975925;28;20023;-82
2021/03/21 13:02:26;;;;;;;27.42;13.52;;;6.50;91.30;;;;;;4975870;28;20031;-82
2021/03/21 13:04:53;;;;;;;23.23;10.35;;;6.50;91.70;;;;;;4958692;28;20035;-81
2021/03/21 13:07:19;;;;;;;9.80;4.22;;;6.60;91.90;;;;;;4975545;28;20076;-81
2021/03/21 13:09:45;;;;;;;15.48;6.10;;;6.60;91.70;;;;;;4994030;28;20026;-81
2021/03/21 13:12:11;;;;;;;10.02;4.43;;;6.70;91.90;;;;;;4995200;28;20034;-82
2021/03/21 13:14:37;;;;;;;17.83;7.00;;;6.80;92.10;;;;;;4995276;28;20042;-81
2021/03/21 13:17:04;;;;;;;19.58;8.20;;;7.00;92.10;;;;;;4991724;28;20145;-80
2021/03/21 13:19:30;;;;;;;17.50;8.18;;;7.20;92.30;;;;;;4993545;28;20041;-80
2021/03/21 13:21:56;;;;;;;11.63;6.78;;;7.50;92.90;;;;;;4994077;28;20031;-81
2021/03/21 13:24:23;;;;;;;18.48;6.03;;;7.90;93.10;;;;;;4993743;28;20054;-81
2021/03/21 13:26:48;;;;;;;11.20;5.10;;;8.10;92.10;;;;;;5009975;28;20027;-80
2021/03/21 13:29:14;;;;;;;6.03;3.00;;;8.20;91.80;;;;;;4994785;28;20030;-80
2021/03/21 13:31:40;;;;;;;17.67;6.35;;;8.30;91.80;;;;;;4994820;28;20498;-80
2021/03/21 13:34:05;;;;;;;14.77;6.47;;;8.60;92.70;;;;;;5000083;28;20022;-81
2021/03/21 13:36:31;;;;;;;16.80;6.80;;;8.70;91.70;;;;;;4999394;28;20035;-80
2021/03/21 13:38:56;;;;;;;10.68;4.22;;;8.70;91.20;;;;;;4994083;28;20026;-80
2021/03/21 13:41:22;;;;;;;21.48;7.68;;;8.80;92.00;;;;;;4994676;28;20030;-80
2021/03/21 13:43:48;;;;;;;17.20;5.90;;;9.10;92.40;;;;;;4993369;28;20374;-80